Memphis, Tennessee
Current Conditions -  °F | °C
As of 2:54 AM on Saturday 29 Nov 2014 (Local Time) from KMEM Reporting Station
Broken Clouds Broken Clouds  
Wind Chill: 52°   Ceiling: 4400
Heat Index: 52°   Visibility: 10mi
Dew Point: 38°   Wind: 14mph
Humidity: 59%   Direction: 200°SSW
Pressure: 30.05"   Gusts: NA
Location:  35.15°N, 90.05°W
Report Text: KMEM 290854Z 20012KT 10SM BKN044 11/03 A3005 RMK AO2 SLP176 T01110033 58010 $
Loading
Personal Weather Stations






























Interactive Weather Map New forecast layout! Learn more

10-Day Weather Forecast

Advertisements
Track Severe Weather on mobile